Time;durP1;ratioP1;P1;durP2;ratioP2;P2;SDS_P1;SDS_P2;PMS_P1;PMS_P2;Temp;Humidity;BMP_temperature;BMP_pressure;BME280_temperature;BME280_humidity;BME280_pressure;Samples;Min_cycle;Max_cycle;Signal;HPM_P1;HPM_P2
2021/05/10 00:02:15;;;;;;;8.80;7.32;;;15.60;38.60;;;;;;5120171;28;20043;-65
2021/05/10 00:04:47;;;;;;;8.25;7.50;;;15.50;38.60;;;;;;5121110;29;20051;-65
2021/05/10 00:07:18;;;;;;;8.07;7.38;;;15.50;38.90;;;;;;5118689;28;20055;-65
2021/05/10 00:09:49;;;;;;;8.20;7.50;;;15.50;38.70;;;;;;5104634;29;20055;-65
2021/05/10 00:12:21;;;;;;;8.25;7.53;;;15.70;38.10;;;;;;5103678;29;20082;-65
2021/05/10 00:14:53;;;;;;;8.23;7.53;;;15.70;37.80;;;;;;5121994;29;20374;-67
2021/05/10 00:17:24;;;;;;;8.32;7.60;;;15.80;37.30;;;;;;5119462;29;20051;-66
2021/05/10 00:19:56;;;;;;;8.05;7.35;;;15.80;39.10;;;;;;5103536;29;20588;-65
2021/05/10 00:22:27;;;;;;;8.65;7.82;;;15.80;37.70;;;;;;5120167;29;20129;-66
2021/05/10 00:25:00;;;;;;;8.10;7.40;;;15.80;38.10;;;;;;5119956;29;20047;-66
2021/05/10 00:27:31;;;;;;;8.00;7.30;;;15.80;39.70;;;;;;5118401;29;20071;-65
2021/05/10 00:30:04;;;;;;;8.20;7.50;;;15.80;39.20;;;;;;5120959;29;20083;-65
2021/05/10 00:32:35;;;;;;;8.75;8.00;;;15.80;38.70;;;;;;5119488;29;20417;-68
2021/05/10 00:35:08;;;;;;;8.57;7.85;;;15.80;40.20;;;;;;5117910;28;20047;-68
2021/05/10 00:37:39;;;;;;;8.85;8.05;;;15.80;40.90;;;;;;5102458;29;20048;-66
2021/05/10 00:40:13;;;;;;;8.50;7.80;;;15.70;39.90;;;;;;5120112;29;20133;-65
2021/05/10 00:42:45;;;;;;;8.77;7.97;;;15.70;40.40;;;;;;5120755;29;20035;-65
2021/05/10 00:45:17;;;;;;;8.25;7.45;;;15.70;41.40;;;;;;5120096;29;20071;-65
2021/05/10 00:47:49;;;;;;;8.40;7.70;;;15.70;40.70;;;;;;5120094;29;20460;-65
2021/05/10 00:50:22;;;;;;;8.88;8.00;;;15.50;41.20;;;;;;5108637;29;20067;-66
2021/05/10 00:52:53;;;;;;;8.90;7.70;;;15.40;43.80;;;;;;5119522;29;20075;-65
2021/05/10 00:55:26;;;;;;;8.85;7.95;;;15.30;43.40;;;;;;5119540;29;20050;-65
2021/05/10 00:58:03;;;;;;;8.68;7.95;;;15.30;42.60;;;;;;5119897;29;20141;-65
2021/05/10 01:00:37;;;;;;;8.52;7.82;;;15.30;43.40;;;;;;5118449;29;22272;-65
2021/05/10 01:03:09;;;;;;;9.35;8.50;;;15.30;42.10;;;;;;5119591;29;20047;-65
2021/05/10 01:05:41;;;;;;;9.20;8.30;;;15.40;41.50;;;;;;5118585;29;20175;-66
2021/05/10 01:08:12;;;;;;;9.00;8.20;;;15.40;41.70;;;;;;5119048;29;20040;-66
2021/05/10 01:10:45;;;;;;;9.32;8.48;;;15.40;42.10;;;;;;5118684;29;21292;-65
2021/05/10 01:13:17;;;;;;;9.07;8.23;;;15.40;43.60;;;;;;5102009;29;20106;-66
2021/05/10 01:15:53;;;;;;;9.60;8.70;;;15.40;43.30;;;;;;5118633;29;20567;-65
2021/05/10 01:18:24;;;;;;;9.07;8.38;;;15.40;43.70;;;;;;5101611;29;20502;-66
2021/05/10 01:20:59;;;;;;;9.57;8.60;;;15.40;44.40;;;;;;5102102;29;20048;-65
2021/05/10 01:23:31;;;;;;;9.15;8.35;;;15.30;45.40;;;;;;5119562;29;20510;-65
2021/05/10 01:26:03;;;;;;;9.05;8.25;;;15.30;44.60;;;;;;5117986;29;20433;-66
2021/05/10 01:28:34;;;;;;;9.30;8.40;;;15.30;43.10;;;;;;5118213;28;20477;-70
2021/05/10 01:31:06;;;;;;;9.00;8.10;;;15.30;43.20;;;;;;5119370;28;20054;-66
2021/05/10 01:33:37;;;;;;;8.63;7.85;;;15.40;43.30;;;;;;5119627;29;20047;-65
2021/05/10 01:36:09;;;;;;;9.00;8.20;;;15.40;45.90;;;;;;5118845;29;20134;-66
2021/05/10 01:38:40;;;;;;;9.27;8.50;;;15.30;46.60;;;;;;5119028;29;20102;-66
2021/05/10 01:41:12;;;;;;;10.88;8.45;;;15.30;46.30;;;;;;5118269;29;20410;-66
2021/05/10 01:43:44;;;;;;;10.30;8.27;;;15.30;46.30;;;;;;5119578;29;20062;-66
2021/05/10 01:46:15;;;;;;;9.85;8.75;;;15.30;46.70;;;;;;5117760;28;20102;-66
2021/05/10 01:48:47;;;;;;;9.15;8.25;;;15.30;44.60;;;;;;5118516;29;20141;-65
2021/05/10 01:51:27;;;;;;;9.10;8.27;;;15.30;42.90;;;;;;5118559;28;20105;-66
2021/05/10 01:53:58;;;;;;;8.95;8.15;;;15.50;42.50;;;;;;5102251;29;20126;-65
2021/05/10 01:56:30;;;;;;;9.95;8.63;;;15.60;45.00;;;;;;5116686;28;20102;-66
2021/05/10 01:59:01;;;;;;;9.13;8.32;;;15.60;44.70;;;;;;5117809;29;20161;-67
2021/05/10 02:01:33;;;;;;;9.10;8.20;;;15.60;46.00;;;;;;5105686;29;20477;-66
2021/05/10 02:04:05;;;;;;;9.02;8.13;;;15.60;45.70;;;;;;5118867;29;20043;-66
2021/05/10 02:06:36;;;;;;;9.18;8.38;;;15.60;44.00;;;;;;5118403;29;20144;-66
2021/05/10 02:09:07;;;;;;;9.52;8.68;;;15.60;46.60;;;;;;5118421;28;20694;-65
2021/05/10 02:11:39;;;;;;;9.18;8.32;;;15.60;45.40;;;;;;5117468;29;20477;-65
2021/05/10 02:14:10;;;;;;;9.23;8.38;;;15.60;46.50;;;;;;5119007;29;21542;-66
2021/05/10 02:16:41;;;;;;;9.40;8.55;;;15.60;47.10;;;;;;5106689;29;20051;-66
2021/05/10 02:19:13;;;;;;;10.68;9.18;;;15.60;46.00;;;;;;5116616;29;20051;-65
2021/05/10 02:21:44;;;;;;;9.32;8.43;;;15.60;46.60;;;;;;5118294;29;20052;-66
2021/05/10 02:24:16;;;;;;;9.57;8.52;;;15.60;47.60;;;;;;5117435;29;20039;-65
2021/05/10 02:26:47;;;;;;;9.15;8.35;;;15.50;46.40;;;;;;5084939;29;20888;-66
2021/05/10 02:29:18;;;;;;;9.70;8.80;;;15.60;46.90;;;;;;5118803;29;20035;-66
2021/05/10 02:31:50;;;;;;;9.25;8.45;;;15.50;47.60;;;;;;5117204;29;20055;-66
2021/05/10 02:34:22;;;;;;;9.35;8.55;;;15.50;46.60;;;;;;5100590;28;20670;-65
2021/05/10 02:36:54;;;;;;;9.35;8.45;;;15.60;44.50;;;;;;5117171;29;20047;-66
2021/05/10 02:39:25;;;;;;;9.35;8.55;;;15.60;47.20;;;;;;5117272;29;20087;-66
2021/05/10 02:41:57;;;;;;;9.55;8.65;;;15.70;46.20;;;;;;5115830;28;20137;-66
2021/05/10 02:44:28;;;;;;;9.70;8.70;;;15.90;40.90;;;;;;5118962;29;20043;-66
2021/05/10 02:46:59;;;;;;;9.57;8.73;;;16.10;42.60;;;;;;5117011;29;20866;-66
2021/05/10 02:49:31;;;;;;;9.98;8.95;;;16.20;38.90;;;;;;5117930;29;20047;-66
2021/05/10 02:52:03;;;;;;;9.70;8.70;;;16.60;37.40;;;;;;5117672;29;20079;-66
2021/05/10 02:54:34;;;;;;;9.90;8.88;;;16.80;38.10;;;;;;5118741;29;20061;-65
2021/05/10 02:57:06;;;;;;;10.05;9.00;;;16.90;38.60;;;;;;5115439;28;20058;-66
2021/05/10 02:59:37;;;;;;;9.88;9.00;;;16.80;38.30;;;;;;5117914;28;20047;-66
2021/05/10 03:02:09;;;;;;;9.60;8.80;;;16.90;37.30;;;;;;5117150;29;20071;-65
2021/05/10 03:04:41;;;;;;;11.02;9.10;;;16.90;37.40;;;;;;5117914;29;20421;-65
2021/05/10 03:07:13;;;;;;;10.05;9.10;;;17.20;38.80;;;;;;5116303;29;20535;-64
2021/05/10 03:09:44;;;;;;;10.05;9.07;;;17.10;39.20;;;;;;5118375;29;20470;-66
2021/05/10 03:12:16;;;;;;;10.38;9.35;;;17.10;39.90;;;;;;5117511;29;20105;-65
2021/05/10 03:14:48;;;;;;;9.82;8.93;;;17.10;37.70;;;;;;5100530;29;20133;-66
2021/05/10 03:17:20;;;;;;;10.23;9.20;;;17.20;38.00;;;;;;5116711;29;20142;-65
2021/05/10 03:19:51;;;;;;;9.80;8.93;;;17.20;39.70;;;;;;5118403;29;20137;-65
2021/05/10 03:22:23;;;;;;;9.98;9.10;;;17.10;36.60;;;;;;5117331;29;20576;-65
2021/05/10 03:24:55;;;;;;;9.85;8.95;;;17.20;40.70;;;;;;5117511;29;20747;-64
2021/05/10 03:27:26;;;;;;;10.43;8.40;;;17.10;41.40;;;;;;5098637;29;20126;-66
2021/05/10 03:29:58;;;;;;;9.57;8.68;;;17.00;40.40;;;;;;5117964;28;20044;-66
2021/05/10 03:32:29;;;;;;;9.50;8.70;;;17.00;40.80;;;;;;5116503;29;20536;-65
2021/05/10 03:35:03;;;;;;;9.20;8.45;;;16.90;42.00;;;;;;5115997;29;20055;-65
2021/05/10 03:37:35;;;;;;;9.55;8.75;;;16.90;39.60;;;;;;5116825;29;20051;-65
2021/05/10 03:40:09;;;;;;;10.35;8.60;;;17.00;38.20;;;;;;5100199;29;20051;-66
2021/05/10 03:42:41;;;;;;;9.73;8.82;;;17.10;40.00;;;;;;5117587;29;20043;-67
2021/05/10 03:45:14;;;;;;;9.90;9.00;;;17.10;39.90;;;;;;5116944;29;20035;-66
2021/05/10 03:47:46;;;;;;;10.15;9.32;;;17.10;39.80;;;;;;5116859;29;20118;-64
2021/05/10 03:50:22;;;;;;;14.52;9.02;;;17.10;39.60;;;;;;5116882;29;20050;-64
2021/05/10 03:52:53;;;;;;;9.68;8.77;;;17.20;37.40;;;;;;5116564;29;20047;-64
2021/05/10 03:55:25;;;;;;;10.00;9.20;;;17.30;38.40;;;;;;5117144;29;20054;-64
2021/05/10 03:57:57;;;;;;;9.93;9.13;;;17.40;37.30;;;;;;5115926;29;20055;-64
2021/05/10 04:00:29;;;;;;;9.70;8.90;;;17.50;36.90;;;;;;5117206;29;20062;-66
2021/05/10 04:03:01;;;;;;;9.88;8.88;;;17.60;36.60;;;;;;5117256;29;20583;-66
2021/05/10 04:11:21;;;;;;;;;;;18.20;34.50;;;;;;5119055;28;20065;-67
2021/05/10 04:13:57;;;;;;;10.00;9.20;;;18.30;33.30;;;;;;5121201;28;19930;-66
2021/05/10 04:16:28;;;;;;;10.07;9.18;;;18.40;34.10;;;;;;5121340;29;20584;-66
2021/05/10 04:19:00;;;;;;;9.82;9.02;;;18.50;33.60;;;;;;5120188;29;20774;-67
2021/05/10 04:21:31;;;;;;;10.00;9.10;;;18.50;34.20;;;;;;5119166;29;20091;-66
2021/05/10 04:24:03;;;;;;;9.25;8.55;;;18.50;34.90;;;;;;5119773;29;20110;-68
2021/05/10 04:26:35;;;;;;;9.55;8.63;;;18.50;35.50;;;;;;5103893;29;20090;-66
2021/05/10 04:29:06;;;;;;;9.32;8.43;;;18.40;36.00;;;;;;5120039;29;20049;-67
2021/05/10 04:31:42;;;;;;;9.40;8.60;;;18.40;35.20;;;;;;5121314;29;20161;-66
2021/05/10 04:34:14;;;;;;;9.45;8.65;;;18.40;35.90;;;;;;5103220;29;20079;-67
2021/05/10 04:36:45;;;;;;;9.77;8.88;;;18.40;35.30;;;;;;5120537;29;20075;-67
2021/05/10 04:39:17;;;;;;;9.63;8.82;;;18.40;36.00;;;;;;5121206;29;20501;-66
2021/05/10 04:41:48;;;;;;;9.82;9.02;;;18.30;37.10;;;;;;5120462;29;20050;-66
2021/05/10 04:44:19;;;;;;;11.05;9.95;;;18.30;39.00;;;;;;5121857;29;20568;-66
2021/05/10 04:46:51;;;;;;;9.55;8.75;;;18.20;39.60;;;;;;5120241;29;20039;-66
2021/05/10 04:49:22;;;;;;;9.88;8.98;;;18.10;38.90;;;;;;5120206;28;20130;-66
2021/05/10 04:51:54;;;;;;;9.75;8.90;;;18.00;40.50;;;;;;5118965;28;20048;-67
2021/05/10 04:54:25;;;;;;;9.73;8.93;;;17.90;40.60;;;;;;5121275;29;20047;-67
2021/05/10 04:56:57;;;;;;;10.20;9.07;;;17.80;41.60;;;;;;5119421;28;20059;-66
2021/05/10 04:59:28;;;;;;;9.63;8.82;;;17.70;41.40;;;;;;5120550;29;20517;-66
2021/05/10 05:02:00;;;;;;;9.40;8.60;;;17.70;41.70;;;;;;5120098;28;20046;-66
2021/05/10 05:04:32;;;;;;;9.52;8.73;;;17.70;39.30;;;;;;5120799;29;20047;-67
2021/05/10 05:07:03;;;;;;;9.93;8.60;;;17.70;37.40;;;;;;5118800;29;20055;-66
2021/05/10 05:09:35;;;;;;;9.43;8.52;;;17.80;39.90;;;;;;5119998;29;20043;-66
2021/05/10 05:12:06;;;;;;;9.40;8.57;;;17.90;39.50;;;;;;5119185;29;20066;-66
2021/05/10 05:14:38;;;;;;;9.77;8.77;;;18.00;39.30;;;;;;5120658;29;20058;-66
2021/05/10 05:17:09;;;;;;;9.02;8.23;;;18.10;40.10;;;;;;5118594;29;20110;-64
2021/05/10 05:19:41;;;;;;;8.90;8.07;;;18.20;41.80;;;;;;5119247;29;20098;-64
2021/05/10 05:22:13;;;;;;;9.30;8.30;;;18.40;40.80;;;;;;5118542;28;20047;-64
2021/05/10 05:24:44;;;;;;;9.05;8.13;;;18.60;41.70;;;;;;5120158;29;20043;-64
2021/05/10 05:27:15;;;;;;;9.52;8.60;;;18.80;42.40;;;;;;5117824;29;20118;-64
2021/05/10 05:29:47;;;;;;;10.30;9.27;;;19.00;40.00;;;;;;5117961;29;20071;-64
2021/05/10 05:32:20;;;;;;;10.52;9.10;;;19.20;40.60;;;;;;5116595;29;20185;-64
2021/05/10 05:34:52;;;;;;;10.10;9.23;;;19.30;41.20;;;;;;5117878;29;20062;-64
2021/05/10 05:37:24;;;;;;;9.63;8.82;;;19.30;37.10;;;;;;5117393;29;20409;-64
2021/05/10 05:39:56;;;;;;;10.15;9.25;;;19.40;40.60;;;;;;5118181;29;20082;-64
2021/05/10 05:42:27;;;;;;;9.90;9.00;;;19.40;44.60;;;;;;5116749;28;20509;-64
2021/05/10 05:45:01;;;;;;;10.20;8.85;;;19.40;41.60;;;;;;5116076;29;20046;-64
2021/05/10 05:47:33;;;;;;;9.68;8.63;;;19.40;42.10;;;;;;5117956;29;21075;-64
2021/05/10 05:50:05;;;;;;;9.45;8.63;;;19.50;41.50;;;;;;5117237;29;20031;-65
2021/05/10 05:52:36;;;;;;;10.00;8.95;;;19.60;42.90;;;;;;5117640;29;20047;-64
2021/05/10 05:55:09;;;;;;;9.90;8.30;;;19.60;39.70;;;;;;5115647;29;20047;-64
2021/05/10 05:57:44;;;;;;;9.63;8.63;;;19.70;39.40;;;;;;5114646;29;20126;-64
2021/05/10 06:00:16;;;;;;;9.30;8.40;;;19.70;38.20;;;;;;5116134;29;20118;-67
2021/05/10 06:02:47;;;;;;;8.98;8.07;;;19.70;38.50;;;;;;5117185;29;20043;-64
2021/05/10 06:05:18;;;;;;;11.60;8.60;;;19.70;34.40;;;;;;5116594;29;20055;-64
2021/05/10 06:07:54;;;;;;;9.18;8.38;;;19.80;38.30;;;;;;5117181;29;20569;-65
2021/05/10 06:10:29;;;;;;;9.02;8.32;;;19.80;37.10;;;;;;5117199;29;22468;-64
2021/05/10 06:13:00;;;;;;;9.57;8.57;;;19.70;35.80;;;;;;5118339;29;20145;-64
2021/05/10 06:15:32;;;;;;;9.63;8.50;;;19.80;38.70;;;;;;5115382;28;20055;-65
2021/05/10 06:18:06;;;;;;;9.77;8.77;;;19.80;41.50;;;;;;5117462;28;20051;-64
2021/05/10 06:20:38;;;;;;;10.02;9.02;;;20.00;35.90;;;;;;5118272;28;20051;-64
2021/05/10 06:23:10;;;;;;;9.20;8.30;;;20.20;35.10;;;;;;5118042;29;20053;-64
2021/05/10 06:25:42;;;;;;;10.00;9.00;;;20.50;33.50;;;;;;5117716;29;20051;-65
2021/05/10 06:28:13;;;;;;;9.45;8.55;;;20.80;33.30;;;;;;5114153;28;20050;-65
2021/05/10 06:30:45;;;;;;;9.60;8.65;;;20.80;31.80;;;;;;5117562;29;20075;-64
2021/05/10 06:33:16;;;;;;;9.55;8.63;;;20.90;31.50;;;;;;5117901;28;20521;-66
2021/05/10 06:35:48;;;;;;;10.43;8.60;;;21.10;34.20;;;;;;5118459;29;20532;-65
2021/05/10 06:38:20;;;;;;;10.07;9.18;;;21.30;32.30;;;;;;5118255;29;20552;-64
2021/05/10 06:40:51;;;;;;;10.00;9.20;;;21.50;32.40;;;;;;5117761;29;20726;-65
2021/05/10 06:43:22;;;;;;;10.80;9.80;;;21.70;33.50;;;;;;5118511;29;20068;-65
2021/05/10 06:45:54;;;;;;;10.13;9.13;;;21.80;30.00;;;;;;5118499;29;20051;-64
2021/05/10 06:48:30;;;;;;;10.95;9.63;;;22.00;31.50;;;;;;5118301;29;20560;-65
2021/05/10 06:51:01;;;;;;;10.35;9.27;;;22.10;29.10;;;;;;5118062;28;20050;-65
2021/05/10 06:53:33;;;;;;;10.75;9.65;;;22.30;30.90;;;;;;5118126;29;20102;-64
2021/05/10 06:56:04;;;;;;;10.10;9.18;;;22.50;31.00;;;;;;5117663;28;20047;-64
2021/05/10 06:58:36;;;;;;;10.18;9.38;;;22.60;30.10;;;;;;5117587;29;20098;-65
2021/05/10 07:01:07;;;;;;;11.05;10.00;;;22.80;30.20;;;;;;5116714;29;20062;-65
2021/05/10 07:03:39;;;;;;;11.02;10.02;;;23.00;30.50;;;;;;5100428;29;20051;-65
2021/05/10 07:06:10;;;;;;;10.90;9.93;;;23.20;29.10;;;;;;5100253;29;20047;-64
2021/05/10 07:08:41;;;;;;;10.40;9.40;;;23.40;29.30;;;;;;5117422;29;20054;-66
2021/05/10 07:11:13;;;;;;;10.70;9.80;;;23.50;28.50;;;;;;5117124;29;20513;-66
2021/05/10 07:13:44;;;;;;;10.55;9.68;;;23.50;27.80;;;;;;5117449;29;20543;-68
2021/05/10 07:20:09;;;;;;;10.80;9.90;;;23.80;30.10;;;;;;5112198;29;20130;-67
2021/05/10 07:22:41;;;;;;;10.70;9.80;;;23.80;29.00;;;;;;5116878;29;20505;-66
2021/05/10 07:25:12;;;;;;;11.10;10.20;;;23.70;29.20;;;;;;5099582;29;20047;-66
2021/05/10 07:27:43;;;;;;;11.00;10.00;;;23.60;28.90;;;;;;5115158;29;20098;-65
2021/05/10 07:30:16;;;;;;;11.60;10.50;;;23.70;29.70;;;;;;5113346;28;20747;-66
2021/05/10 07:32:47;;;;;;;10.50;9.60;;;23.80;27.80;;;;;;5113504;28;20492;-66
2021/05/10 07:35:19;;;;;;;11.27;9.98;;;23.90;29.50;;;;;;5116025;28;20521;-65
2021/05/10 07:37:50;;;;;;;10.45;9.65;;;23.90;28.80;;;;;;5116665;29;20055;-66
2021/05/10 07:40:24;;;;;;;11.05;10.05;;;23.90;28.40;;;;;;5115724;28;20035;-65
2021/05/10 07:42:55;;;;;;;11.35;10.10;;;23.80;26.90;;;;;;5115742;29;20121;-65
2021/05/10 07:45:28;;;;;;;10.63;9.63;;;23.80;28.60;;;;;;5117261;28;20465;-65
2021/05/10 07:48:00;;;;;;;11.02;9.90;;;23.90;27.40;;;;;;5101188;29;20533;-65
2021/05/10 07:50:32;;;;;;;10.85;9.88;;;24.00;27.70;;;;;;5120689;28;20106;-66
2021/05/10 07:53:04;;;;;;;11.30;10.10;;;24.10;26.80;;;;;;5120090;28;20051;-65
2021/05/10 07:55:37;;;;;;;11.15;9.82;;;24.10;25.70;;;;;;5103866;29;20412;-66
2021/05/10 07:58:08;;;;;;;10.10;9.10;;;24.00;25.90;;;;;;5103501;29;20054;-65
2021/05/10 08:00:42;;;;;;;10.65;9.48;;;24.10;26.80;;;;;;5104394;29;20050;-66
2021/05/10 08:03:16;;;;;;;10.23;9.20;;;24.20;26.20;;;;;;5121375;29;20047;-65
2021/05/10 08:05:48;;;;;;;11.18;9.43;;;24.20;27.60;;;;;;5103764;29;20043;-65
2021/05/10 08:08:22;;;;;;;10.50;9.50;;;24.40;26.60;;;;;;5121264;29;20062;-66
2021/05/10 08:10:54;;;;;;;10.75;9.85;;;24.50;27.10;;;;;;5120888;29;20044;-66
2021/05/10 08:13:27;;;;;;;10.73;9.68;;;24.60;27.50;;;;;;5120062;29;20051;-66
2021/05/10 08:15:59;;;;;;;11.02;10.00;;;24.40;26.10;;;;;;5120743;29;20047;-66
2021/05/10 08:18:30;;;;;;;10.57;9.68;;;24.20;26.60;;;;;;5119716;29;20047;-66
2021/05/10 08:21:01;;;;;;;11.45;10.45;;;24.10;26.80;;;;;;5119587;28;20413;-66
2021/05/10 08:23:33;;;;;;;10.18;9.38;;;24.10;25.50;;;;;;5121445;29;20047;-65
2021/05/10 08:26:04;;;;;;;10.50;9.60;;;24.20;26.60;;;;;;5120382;29;20044;-66
2021/05/10 08:28:36;;;;;;;11.00;9.90;;;24.20;26.10;;;;;;5103468;29;20079;-65
2021/05/10 08:31:08;;;;;;;10.82;9.80;;;24.30;28.00;;;;;;5120095;29;20054;-65
2021/05/10 08:33:39;;;;;;;11.07;9.85;;;24.60;26.90;;;;;;5100768;29;20047;-65
2021/05/10 08:36:12;;;;;;;10.60;9.80;;;24.70;27.00;;;;;;5101498;29;20111;-65
2021/05/10 08:38:44;;;;;;;11.18;10.07;;;24.90;27.60;;;;;;5120120;29;20043;-65
2021/05/10 08:41:15;;;;;;;11.32;10.23;;;25.00;26.70;;;;;;5119890;29;20043;-67
2021/05/10 08:43:47;;;;;;;11.60;10.38;;;24.90;25.60;;;;;;5121013;28;20584;-66
2021/05/10 08:46:22;;;;;;;11.27;10.27;;;24.90;26.80;;;;;;5120143;29;20067;-66
2021/05/10 08:48:54;;;;;;;10.68;9.77;;;25.00;26.00;;;;;;5120385;29;20556;-66
2021/05/10 08:51:26;;;;;;;11.20;10.30;;;25.10;27.30;;;;;;5108400;29;20062;-65
2021/05/10 08:54:01;;;;;;;10.48;9.57;;;25.20;26.00;;;;;;5120667;29;20106;-66
2021/05/10 08:56:35;;;;;;;12.23;9.95;;;25.20;26.50;;;;;;5116335;28;20066;-68
2021/05/10 08:59:07;;;;;;;10.27;9.38;;;25.10;26.60;;;;;;5097154;29;20591;-66
2021/05/10 09:03:41;;;;;;;10.60;9.70;;;24.70;26.20;;;;;;5240061;27;20374;-63
2021/05/10 09:06:14;;;;;;;15.23;10.35;;;24.80;25.40;;;;;;5222299;28;20077;-63
2021/05/10 09:08:48;;;;;;;11.13;10.13;;;25.10;26.40;;;;;;5206304;28;20461;-63
2021/05/10 09:11:20;;;;;;;11.77;10.68;;;25.30;27.10;;;;;;5205712;28;20706;-63
2021/05/10 09:13:58;;;;;;;11.15;10.15;;;25.50;26.30;;;;;;5206327;28;20510;-64
2021/05/10 09:16:35;;;;;;;11.35;10.35;;;25.60;25.10;;;;;;5203102;28;20045;-63
2021/05/10 09:19:06;;;;;;;11.23;10.23;;;25.80;26.00;;;;;;5203181;28;20124;-63
2021/05/10 09:21:37;;;;;;;11.18;10.18;;;25.90;25.20;;;;;;5206080;28;20142;-63
2021/05/10 09:24:21;;;;;;;11.38;10.27;;;26.00;27.00;;;;;;5210777;28;20060;-62
2021/05/10 09:27:30;;;;;;;11.48;10.38;;;26.00;27.30;;;;;;5202768;28;20046;-63
2021/05/10 09:30:16;;;;;;;11.73;10.70;;;26.00;26.40;;;;;;5205112;28;20064;-63
2021/05/10 09:32:52;;;;;;;11.63;10.43;;;26.10;26.90;;;;;;5205720;28;20061;-63
2021/05/10 09:35:29;;;;;;;11.73;10.57;;;26.30;27.40;;;;;;5204287;28;20053;-63
2021/05/10 09:38:03;;;;;;;11.40;10.23;;;26.40;29.10;;;;;;5203922;28;20110;-62
2021/05/10 09:40:44;;;;;;;11.73;10.40;;;26.40;27.00;;;;;;5202712;28;20099;-63
2021/05/10 09:43:21;;;;;;;11.43;10.32;;;26.50;25.80;;;;;;5210297;28;20072;-64
2021/05/10 09:45:56;;;;;;;11.10;10.00;;;26.20;25.90;;;;;;5217859;28;20038;-64
2021/05/10 09:48:30;;;;;;;11.38;10.27;;;26.10;26.60;;;;;;5205252;28;20103;-63
2021/05/10 09:51:08;;;;;;;13.20;10.15;;;26.00;26.40;;;;;;5204128;28;20131;-64
2021/05/10 09:53:56;;;;;;;11.30;10.15;;;25.80;26.90;;;;;;5203423;28;20041;-63
2021/05/10 09:56:32;;;;;;;11.20;10.30;;;25.80;25.60;;;;;;5202289;28;20415;-63
2021/05/10 09:59:11;;;;;;;11.63;10.57;;;25.90;26.90;;;;;;5203545;28;20052;-63
2021/05/10 10:01:48;;;;;;;11.18;10.23;;;26.00;27.60;;;;;;5203777;28;20096;-63
2021/05/10 10:04:19;;;;;;;11.73;10.65;;;25.90;25.50;;;;;;5202159;28;20044;-63
2021/05/10 10:06:52;;;;;;;11.70;10.50;;;25.90;27.50;;;;;;5199230;28;20760;-63
2021/05/10 10:09:24;;;;;;;11.55;10.57;;;25.70;28.30;;;;;;5221701;28;20046;-66
2021/05/10 10:11:56;;;;;;;12.00;10.88;;;25.80;26.60;;;;;;5202784;28;20049;-64
2021/05/10 10:14:27;;;;;;;11.25;10.25;;;25.90;26.20;;;;;;5193306;28;20050;-64
2021/05/10 10:17:11;;;;;;;11.88;10.90;;;25.80;26.50;;;;;;5189350;28;20740;-63
2021/05/10 10:19:43;;;;;;;11.45;10.45;;;25.90;27.30;;;;;;5192597;28;20041;-63
2021/05/10 10:22:17;;;;;;;11.65;10.55;;;25.80;24.70;;;;;;5188572;28;20042;-63
2021/05/10 10:24:49;;;;;;;11.70;10.60;;;25.80;26.50;;;;;;5187735;28;20033;-63
2021/05/10 10:27:41;;;;;;;11.65;10.60;;;25.70;27.60;;;;;;5190124;28;20697;-64
2021/05/10 10:30:14;;;;;;;11.82;10.70;;;25.70;28.00;;;;;;5188932;28;20880;-64
2021/05/10 10:32:45;;;;;;;11.60;10.57;;;25.60;26.20;;;;;;5188850;28;20037;-63
2021/05/10 10:35:44;;;;;;;11.20;10.30;;;25.60;26.40;;;;;;5188845;28;20034;-65
2021/05/10 10:38:28;;;;;;;11.43;10.52;;;25.80;27.20;;;;;;5190787;28;20058;-65
2021/05/10 10:41:20;;;;;;;11.45;10.38;;;25.70;25.30;;;;;;5192596;28;20111;-65
2021/05/10 10:43:52;;;;;;;11.07;9.98;;;25.70;24.90;;;;;;5189241;28;20046;-65
2021/05/10 10:46:29;;;;;;;11.32;10.23;;;25.60;26.20;;;;;;5189319;28;20050;-65
2021/05/10 10:49:36;;;;;;;11.30;10.20;;;25.50;25.70;;;;;;5189214;28;20037;-66
2021/05/10 10:52:19;;;;;;;12.32;11.05;;;25.40;26.30;;;;;;5189352;28;20045;-65
2021/05/10 10:55:22;;;;;;;12.30;11.00;;;25.20;26.60;;;;;;5189718;28;20034;-68
2021/05/10 10:58:11;;;;;;;10.30;9.40;;;25.10;26.90;;;;;;5184975;28;20644;-65
2021/05/10 11:01:03;;;;;;;11.20;10.10;;;25.00;26.80;;;;;;5190910;28;20064;-65
2021/05/10 11:03:37;;;;;;;11.05;10.02;;;25.10;27.10;;;;;;5191747;28;20042;-65
2021/05/10 11:06:09;;;;;;;10.90;9.88;;;25.10;26.30;;;;;;5189114;28;20129;-65
2021/05/10 11:08:44;;;;;;;11.02;10.00;;;25.10;27.20;;;;;;5190176;28;20503;-65
2021/05/10 11:14:49;;;;;;;11.00;9.90;;;25.20;26.30;;;;;;5191598;28;20041;-66
2021/05/10 11:17:53;;;;;;;11.48;10.40;;;25.20;26.60;;;;;;5193860;28;20068;-65
2021/05/10 11:20:57;;;;;;;11.50;10.40;;;25.30;27.40;;;;;;5186982;28;20049;-66
2021/05/10 11:23:29;;;;;;;11.82;10.40;;;25.20;28.30;;;;;;5189158;28;20050;-66
2021/05/10 11:26:04;;;;;;;12.65;9.90;;;25.30;27.00;;;;;;5186922;28;20779;-66
2021/05/10 11:28:36;;;;;;;10.90;9.85;;;25.40;28.30;;;;;;5188366;28;20049;-67
2021/05/10 11:31:10;;;;;;;12.02;10.00;;;25.40;27.50;;;;;;5187431;28;20068;-66
2021/05/10 11:33:51;;;;;;;10.95;9.90;;;25.50;27.50;;;;;;5189956;28;20041;-65
2021/05/10 11:36:27;;;;;;;11.05;10.05;;;25.60;26.40;;;;;;5188638;28;20041;-66
2021/05/10 11:39:03;;;;;;;11.40;10.45;;;25.70;29.30;;;;;;5188403;28;20076;-66
2021/05/10 11:41:37;;;;;;;11.70;10.70;;;25.60;26.90;;;;;;5188945;28;20062;-65
2021/05/10 11:44:11;;;;;;;11.75;10.55;;;25.70;26.00;;;;;;5188794;28;20038;-66
2021/05/10 11:46:48;;;;;;;12.38;10.45;;;25.80;25.80;;;;;;5187323;28;20548;-65
2021/05/10 11:49:24;;;;;;;11.27;10.23;;;25.80;27.50;;;;;;5189337;28;20414;-65
2021/05/10 11:51:58;;;;;;;11.77;10.57;;;25.90;26.60;;;;;;5187602;28;20053;-63
2021/05/10 11:54:30;;;;;;;11.45;10.30;;;26.00;28.30;;;;;;5188803;28;20049;-64
2021/05/10 11:57:04;;;;;;;13.00;10.65;;;26.10;25.50;;;;;;5185880;28;20519;-65
2021/05/10 11:59:41;;;;;;;11.18;10.18;;;26.10;27.80;;;;;;5187108;28;20073;-64
2021/05/10 12:02:23;;;;;;;11.48;10.38;;;26.10;26.60;;;;;;5190222;28;20549;-65
2021/05/10 12:05:00;;;;;;;12.70;11.05;;;26.30;26.40;;;;;;5186704;28;20132;-66
2021/05/10 12:07:33;;;;;;;12.10;10.73;;;26.50;26.40;;;;;;5187480;28;20509;-64
2021/05/10 12:10:10;;;;;;;11.63;10.50;;;26.50;26.30;;;;;;5189547;28;20045;-66
2021/05/10 12:12:49;;;;;;;11.50;10.40;;;26.60;24.40;;;;;;5190057;28;20125;-64
2021/05/10 12:15:27;;;;;;;11.57;10.50;;;26.50;26.20;;;;;;5189007;28;20482;-65
2021/05/10 12:18:04;;;;;;;11.73;10.52;;;26.50;24.60;;;;;;5188552;28;20045;-65
2021/05/10 12:20:36;;;;;;;12.23;10.90;;;26.60;27.70;;;;;;5186979;28;20053;-65
2021/05/10 12:23:09;;;;;;;12.30;11.10;;;26.80;26.80;;;;;;5189929;28;20038;-65
2021/05/10 12:25:40;;;;;;;11.80;10.60;;;27.00;29.10;;;;;;5186636;28;20073;-65
2021/05/10 12:28:14;;;;;;;12.30;11.15;;;27.10;26.20;;;;;;5190674;28;20129;-65
2021/05/10 12:30:46;;;;;;;11.88;10.73;;;27.10;25.60;;;;;;5185160;28;20046;-65
2021/05/10 12:33:29;;;;;;;12.10;10.90;;;27.10;25.70;;;;;;5187635;28;20049;-65
2021/05/10 12:36:03;;;;;;;11.63;10.52;;;27.10;28.00;;;;;;5186509;28;20585;-65
2021/05/10 12:38:42;;;;;;;12.30;11.10;;;27.10;30.60;;;;;;5185702;28;20108;-65
2021/05/10 12:41:21;;;;;;;12.52;11.23;;;27.10;27.10;;;;;;5183691;28;20107;-65
2021/05/10 12:43:55;;;;;;;12.57;11.38;;;26.70;23.50;;;;;;5187908;28;20069;-64
2021/05/10 12:46:28;;;;;;;12.13;10.65;;;26.60;24.70;;;;;;5186932;28;20506;-65
2021/05/10 12:49:00;;;;;;;11.52;10.60;;;26.50;27.20;;;;;;5186594;28;20034;-65
2021/05/10 12:51:32;;;;;;;12.98;11.38;;;26.50;24.70;;;;;;5186300;28;20419;-67
2021/05/10 12:54:05;;;;;;;12.55;11.20;;;26.40;27.60;;;;;;5185587;28;20037;-67
2021/05/10 12:56:44;;;;;;;12.25;11.18;;;26.40;25.40;;;;;;5184751;28;20526;-65
2021/05/10 12:59:15;;;;;;;12.23;11.23;;;26.30;26.90;;;;;;5186504;28;20562;-65
2021/05/10 13:01:49;;;;;;;12.15;11.10;;;26.20;24.70;;;;;;5184569;28;20132;-65
2021/05/10 13:04:24;;;;;;;11.85;10.85;;;26.20;26.60;;;;;;5169474;28;20140;-65
2021/05/10 13:06:56;;;;;;;12.50;11.27;;;26.20;26.10;;;;;;5184581;28;20050;-65
2021/05/10 13:09:28;;;;;;;14.00;11.05;;;26.10;27.30;;;;;;5187796;28;20128;-65
2021/05/10 13:12:06;;;;;;;12.35;11.23;;;26.10;27.10;;;;;;5188661;28;20487;-65
2021/05/10 13:14:49;;;;;;;11.80;10.68;;;26.10;27.80;;;;;;5188624;28;20049;-65
2021/05/10 13:17:53;;;;;;;11.95;10.93;;;26.00;28.30;;;;;;5188295;28;20054;-66
2021/05/10 13:20:48;;;;;;;12.63;11.32;;;25.90;30.20;;;;;;5189306;28;20495;-65
2021/05/10 13:31:47;;;;;;;11.82;10.73;;;25.50;28.80;;;;;;5186697;28;20056;-65
2021/05/10 13:34:33;;;;;;;12.32;11.00;;;25.40;31.00;;;;;;5190865;28;20045;-65
2021/05/10 13:37:10;;;;;;;12.43;11.18;;;25.30;33.50;;;;;;5186287;28;20119;-66